KGOK

Guthrie-Edmond Regional Airport

Guthrie, Oklahoma, USA
METAR KGOK 242053Z AUTO 17011KT 10SM FEW020 BKN025 26/20 A2984 RMK AO2 SLP097 T02560200 58014
Observed Flight Rules
Sep-24 @ 20:53 UTC (an hour ago) Marginal Visual Flight Rules
Wind Visibility Clouds
170° at 11 knots 10 miles
  • Few at 2,000' AGL
  • Broken at 2,500' AGL
Temperatures Readings
Current 26°C / 79°F
Dewpoint 20°C / 68°F
Humidity 70%
Altimeter 29.84" Hg
Pressure 1009.7 hPa
Elevation 324
METAR KGOK 242053Z AUTO 17011KT 10SM FEW020 BKN025 26/20 A2984 RMK AO2 SLP097 T02560200 58014
Observed Flight Rules
Sep-24 @ 20:53 UTC
(an hour ago)
MVFR
Wind Visibility
170° at 11 knots 10 miles
Clouds
  • Few at 2,000' AGL
  • Broken at 2,500' AGL
Temperature Dewpoint
26°C / 79°F 20°C / 68°F
Humidity Altimeter Pressure
70% 29.84" Hg 1009.7 hPa